Country
Station

 

Weather  for  Hayden/Yampa Automatic Weather Observing/Reporting System  -  United States    United States

  
26 °C (79 °F)
    
 
 

Current METAR for Hayden/Yampa Automatic Weather Observing/Reporting System is :

KHDN 171756Z AUTO 34007KT 10SM CLR 26/06 A3038 RMK AO2 SLP200 T02560061 10256 20133 58008

 

This is a report for Hayden/Yampa Automatic Weather Observing/Reporting System - United States.
 
The report was made 54 minutes ago, at 17:56 UTC .
The wind was blowing at a speed of 3.6 meters per second (8.1 miles per hour) from north/northwest (340°).
 
The temperature was 26 °C (79 °F), with a dew-point at 6 °C (43 °F).
The temperature felt like 26 °C (78 °F).
 
The atmospheric pressure was 1029 hPa (30.38 inHg).
The relative humidity was 27.8%.
 
The sky was clear.
 
The overall visibility was 16.1 kilometers (10.0 miles).
 

 
 
 
 

Country :   A   B   C   D   E   F   G   H   I   J   K   L   M   N   O   P   Q   R   S   T   U   V   W   Y   Z

 

Site Info  |  Disclaimer  |  Credits  |  Privacy
Contact us  |  Add to favorites
© 2013-2018 METARs - All rights reserved